createdAt,value
2023-02-06T00:01:43.666Z,85.66
2023-02-06T00:04:12.051Z,85.80
2023-02-06T00:06:40.901Z,85.84
2023-02-06T00:09:09.618Z,85.74
2023-02-06T00:11:42.025Z,85.57
2023-02-06T00:14:10.251Z,85.78
2023-02-06T00:16:58.078Z,86.05
2023-02-06T00:19:26.999Z,86.32
2023-02-06T00:21:55.365Z,86.07
2023-02-06T00:24:23.388Z,85.97
2023-02-06T00:26:51.569Z,85.80
2023-02-06T00:29:19.820Z,85.93
2023-02-06T00:31:48.558Z,86.18
2023-02-06T00:34:17.436Z,86.49
2023-02-06T00:36:46.061Z,86.77
2023-02-06T00:39:15.760Z,86.55
2023-02-06T00:41:44.239Z,86.30
2023-02-06T00:44:12.400Z,86.46
2023-02-06T00:46:40.372Z,86.53
2023-02-06T00:49:08.666Z,86.56
2023-02-06T00:51:38.897Z,86.48
2023-02-06T00:54:07.374Z,86.29
2023-02-06T00:56:36.174Z,86.04
2023-02-06T00:59:04.740Z,86.10
2023-02-06T01:01:34.245Z,86.15
2023-02-06T01:04:02.254Z,86.00
2023-02-06T01:06:41.929Z,85.71
2023-02-06T01:09:10.041Z,85.56
2023-02-06T01:11:38.060Z,85.38
2023-02-06T01:14:06.259Z,85.46
2023-02-06T01:16:34.587Z,85.41
2023-02-06T01:19:02.684Z,85.39
2023-02-06T01:21:31.221Z,85.13
2023-02-06T01:23:59.184Z,85.01
2023-02-06T01:26:27.285Z,84.83
2023-02-06T01:28:55.690Z,84.85
2023-02-06T01:31:25.104Z,85.09
2023-02-06T01:33:55.301Z,85.19
2023-02-06T01:36:23.719Z,85.10
2023-02-06T01:38:51.906Z,84.96
2023-02-06T01:41:21.684Z,84.80
2023-02-06T01:44:17.757Z,84.42
2023-02-06T01:46:47.308Z,84.49
2023-02-06T01:49:21.627Z,84.52
2023-02-06T01:51:53.410Z,84.58
2023-02-06T01:54:21.479Z,84.56
2023-02-06T01:56:55.486Z,84.39
2023-02-06T01:59:23.767Z,84.20
2023-02-06T02:01:51.860Z,83.89
2023-02-06T02:04:21.025Z,84.04
2023-02-06T02:07:17.188Z,84.09
2023-02-06T02:09:45.087Z,84.04
2023-02-06T02:12:13.924Z,83.95
2023-02-06T02:14:44.146Z,83.72
2023-02-06T02:17:24.619Z,83.67
2023-02-06T02:20:31.454Z,83.84
2023-02-06T02:23:06.798Z,83.72
2023-02-06T02:26:14.345Z,83.76
2023-02-06T02:29:02.904Z,83.43
2023-02-06T02:31:41.782Z,83.40
2023-02-06T02:34:17.633Z,83.34
2023-02-06T02:36:55.886Z,83.54
2023-02-06T02:39:30.058Z,83.47
2023-02-06T02:42:05.329Z,83.32
2023-02-06T02:45:03.178Z,83.25
2023-02-06T02:47:34.029Z,83.07
2023-02-06T02:50:04.705Z,82.86
2023-02-06T02:52:32.717Z,82.89
2023-02-06T02:55:00.788Z,83.04
2023-02-06T02:57:30.203Z,83.14
2023-02-06T02:59:59.428Z,83.17
2023-02-06T03:02:32.705Z,83.23
2023-02-06T03:05:04.279Z,83.09
2023-02-06T03:07:53.223Z,82.86
2023-02-06T03:10:37.173Z,82.94
2023-02-06T03:13:17.538Z,83.30
2023-02-06T03:15:55.111Z,83.39
2023-02-06T03:18:31.083Z,83.42
2023-02-06T03:20:59.486Z,83.54
2023-02-06T03:23:29.419Z,83.37
2023-02-06T03:26:00.305Z,83.31
2023-02-06T03:28:34.595Z,83.57
2023-02-06T03:31:03.905Z,83.55
2023-02-06T03:33:40.206Z,83.58
2023-02-06T03:36:11.246Z,83.62
2023-02-06T03:38:42.165Z,83.78
2023-02-06T03:41:18.103Z,83.41
2023-02-06T03:43:47.304Z,83.13
2023-02-06T03:46:15.342Z,83.41
2023-02-06T03:48:45.877Z,83.36
2023-02-06T03:51:26.476Z,83.32
2023-02-06T03:53:54.388Z,83.28
2023-02-06T03:56:28.044Z,83.31
2023-02-06T03:58:56.427Z,82.85
2023-02-06T04:01:24.455Z,82.55
2023-02-06T04:03:52.510Z,82.81
2023-02-06T04:06:20.439Z,82.89
2023-02-06T04:08:48.358Z,83.01
2023-02-06T04:11:16.717Z,82.82
2023-02-06T04:13:45.217Z,83.04
2023-02-06T04:16:13.147Z,82.97
2023-02-06T04:18:41.040Z,82.82
2023-02-06T04:21:09.602Z,83.08
2023-02-06T04:23:37.578Z,83.31
2023-02-06T04:26:06.421Z,83.55
2023-02-06T04:28:34.858Z,83.59
2023-02-06T04:31:02.859Z,83.75
2023-02-06T04:33:31.883Z,83.50
2023-02-06T04:35:59.793Z,83.38
2023-02-06T04:38:28.281Z,83.46
2023-02-06T04:40:56.159Z,83.42
2023-02-06T04:43:24.847Z,83.56
2023-02-06T04:45:53.595Z,83.63
2023-02-06T04:48:22.049Z,83.84
2023-02-06T04:50:50.723Z,83.84
2023-02-06T04:53:19.388Z,83.67
2023-02-06T04:55:47.414Z,83.74
2023-02-06T04:58:16.123Z,83.76
2023-02-06T05:00:44.002Z,83.87
2023-02-06T05:03:12.474Z,83.80
2023-02-06T05:05:40.547Z,83.59
2023-02-06T05:08:09.599Z,83.30
2023-02-06T05:10:37.484Z,83.49
2023-02-06T05:13:05.665Z,83.69
2023-02-06T05:15:36.687Z,83.89
2023-02-06T05:18:05.758Z,83.92
2023-02-06T05:20:34.118Z,84.09
2023-02-06T05:23:02.198Z,84.08
2023-02-06T05:25:30.391Z,83.88
2023-02-06T05:27:58.989Z,83.66
2023-02-06T05:30:27.167Z,83.76
2023-02-06T05:32:55.788Z,83.76
2023-02-06T05:37:02.156Z,83.94
2023-02-06T05:39:30.514Z,84.03
2023-02-06T05:41:58.449Z,83.88
2023-02-06T05:44:26.434Z,83.51
2023-02-06T05:46:54.746Z,83.49
2023-02-06T05:49:22.820Z,83.42
2023-02-06T05:51:50.692Z,83.20
2023-02-06T05:54:18.968Z,83.07
2023-02-06T05:56:47.344Z,83.01
2023-02-06T05:59:15.827Z,82.72
2023-02-06T06:01:43.887Z,82.36
2023-02-06T06:04:11.909Z,82.48
2023-02-06T06:06:40.714Z,82.77
2023-02-06T06:09:09.401Z,82.97
2023-02-06T06:11:37.402Z,82.95
2023-02-06T06:14:05.747Z,82.92
2023-02-06T06:16:35.402Z,83.00
2023-02-06T06:19:05.468Z,82.62
2023-02-06T06:21:34.181Z,82.30
2023-02-06T06:24:05.140Z,82.26
2023-02-06T06:26:33.690Z,82.51
2023-02-06T06:29:01.678Z,82.75
2023-02-06T06:31:29.910Z,82.74
2023-02-06T06:33:57.941Z,82.54
2023-02-06T06:36:26.287Z,82.26
2023-02-06T06:38:55.334Z,82.22
2023-02-06T06:41:23.418Z,81.91
2023-02-06T06:43:51.720Z,81.82
2023-02-06T06:46:19.868Z,81.80
2023-02-06T06:48:48.530Z,81.67
2023-02-06T06:51:16.593Z,81.54
2023-02-06T06:53:44.658Z,81.65
2023-02-06T06:56:14.506Z,81.30
2023-02-06T06:58:42.556Z,81.36
2023-02-06T07:01:10.686Z,81.29
2023-02-06T07:03:38.930Z,81.10
2023-02-06T07:06:07.007Z,80.99
2023-02-06T07:08:41.824Z,80.82
2023-02-06T07:11:14.677Z,80.92
2023-02-06T07:13:42.993Z,80.89
2023-02-06T07:16:12.176Z,80.66
2023-02-06T07:18:41.808Z,80.67
2023-02-06T07:21:10.445Z,80.70
2023-02-06T07:23:38.505Z,80.89
2023-02-06T07:26:06.794Z,80.82
2023-02-06T07:28:34.824Z,80.73
2023-02-06T07:31:04.612Z,80.67
2023-02-06T07:33:32.728Z,80.34
2023-02-06T07:36:03.849Z,80.27
2023-02-06T07:38:33.490Z,80.35
2023-02-06T07:41:03.097Z,79.87
2023-02-06T07:43:33.045Z,79.87
2023-02-06T07:46:02.117Z,79.71
2023-02-06T07:48:30.526Z,79.23
2023-02-06T07:51:04.475Z,78.68
2023-02-06T07:53:34.502Z,78.38
2023-02-06T07:56:02.465Z,78.12
2023-02-06T07:58:31.103Z,78.29
2023-02-06T08:01:05.232Z,78.27
2023-02-06T08:03:36.918Z,77.97
2023-02-06T08:06:12.522Z,77.24
2023-02-06T08:08:40.998Z,77.23
2023-02-06T08:11:11.874Z,76.87
2023-02-06T08:13:39.901Z,76.70
2023-02-06T08:16:10.640Z,76.63
2023-02-06T08:18:40.228Z,76.25
2023-02-06T08:21:12.447Z,76.28
2023-02-06T08:23:40.595Z,76.58
2023-02-06T08:26:13.851Z,76.80
2023-02-06T08:28:42.557Z,76.99
2023-02-06T08:31:17.720Z,76.33
2023-02-06T08:33:46.266Z,75.52
2023-02-06T08:36:17.302Z,75.34
2023-02-06T08:38:45.336Z,75.30
2023-02-06T08:41:20.304Z,74.89
2023-02-06T08:43:51.993Z,74.91
2023-02-06T08:46:20.600Z,74.68
2023-02-06T08:48:48.797Z,74.22
2023-02-06T08:51:16.793Z,73.94
2023-02-06T08:53:44.872Z,73.64
2023-02-06T08:56:13.143Z,72.94
2023-02-06T08:58:42.497Z,72.32
2023-02-06T09:01:16.775Z,72.45
2023-02-06T09:03:45.261Z,72.77
2023-02-06T09:06:13.866Z,72.78
2023-02-06T09:08:42.495Z,72.17
2023-02-06T09:11:16.866Z,72.28
2023-02-06T09:13:49.135Z,72.48
2023-02-06T09:16:18.962Z,72.16
2023-02-06T09:18:48.033Z,72.02
2023-02-06T09:21:18.199Z,71.80
2023-02-06T09:23:50.883Z,71.88
2023-02-06T09:26:21.944Z,72.18
2023-02-06T09:28:58.737Z,71.87
2023-02-06T09:31:29.112Z,71.34
2023-02-06T09:33:58.051Z,71.29
2023-02-06T09:36:26.077Z,71.13
2023-02-06T09:38:56.151Z,70.42
2023-02-06T09:41:29.496Z,70.29
2023-02-06T09:44:20.927Z,70.39
2023-02-06T09:46:55.160Z,70.80
2023-02-06T09:49:46.704Z,71.04
2023-02-06T09:52:18.715Z,71.29
2023-02-06T09:54:56.785Z,71.41
2023-02-06T09:57:37.026Z,71.51
2023-02-06T10:00:23.072Z,71.55
2023-02-06T10:03:17.245Z,71.47
2023-02-06T10:06:16.865Z,71.52
2023-02-06T10:09:00.354Z,71.62
2023-02-06T10:11:41.615Z,71.69
2023-02-06T10:14:19.239Z,71.78
2023-02-06T10:17:01.040Z,71.88
2023-02-06T10:19:46.724Z,71.58
2023-02-06T10:22:21.250Z,71.65
2023-02-06T10:25:02.898Z,71.50
2023-02-06T10:27:33.061Z,71.52
2023-02-06T10:30:01.612Z,71.31
2023-02-06T10:32:42.169Z,71.05
2023-02-06T10:35:18.595Z,70.76
2023-02-06T10:37:53.104Z,70.35
2023-02-06T10:40:39.459Z,69.87
2023-02-06T10:43:33.914Z,68.20
2023-02-06T10:46:23.098Z,67.66
2023-02-06T10:49:00.284Z,67.82
2023-02-06T10:51:32.450Z,66.83
2023-02-06T10:54:06.440Z,66.45
2023-02-06T10:56:40.823Z,66.10
2023-02-06T10:59:23.697Z,64.49
2023-02-06T11:01:53.416Z,63.46
2023-02-06T11:04:33.522Z,62.99
2023-02-06T11:07:04.722Z,62.47
2023-02-06T11:09:33.716Z,61.52
2023-02-06T11:12:03.410Z,61.04
2023-02-06T11:14:37.644Z,61.14
2023-02-06T11:17:05.747Z,60.30
2023-02-06T11:19:38.501Z,60.49
2023-02-06T11:22:09.246Z,60.84
2023-02-06T11:24:38.539Z,60.59
2023-02-06T11:27:16.278Z,59.55
2023-02-06T11:29:46.253Z,60.03
2023-02-06T11:32:36.900Z,59.04
2023-02-06T11:35:38.892Z,58.72
2023-02-06T11:38:18.638Z,58.33
2023-02-06T11:40:54.738Z,56.53
2023-02-06T11:43:25.453Z,57.51
2023-02-06T11:46:15.678Z,57.90
2023-02-06T11:48:48.050Z,58.39
2023-02-06T11:51:16.981Z,59.33
2023-02-06T11:54:02.568Z,59.73
2023-02-06T11:56:31.809Z,59.34
2023-02-06T11:59:30.048Z,59.79
2023-02-06T12:02:01.539Z,56.29
2023-02-06T12:04:40.716Z,53.19
2023-02-06T12:07:19.130Z,51.90
2023-02-06T12:09:47.243Z,53.34
2023-02-06T12:12:29.943Z,52.70
2023-02-06T12:15:29.404Z,53.39
2023-02-06T12:18:02.230Z,53.64
2023-02-06T12:20:32.530Z,55.73
2023-02-06T12:23:06.056Z,55.37
2023-02-06T12:25:39.360Z,54.10
2023-02-06T12:28:14.885Z,57.03
2023-02-06T12:30:55.797Z,53.50
2023-02-06T12:33:37.583Z,51.47
2023-02-06T12:36:20.934Z,51.33
2023-02-06T12:39:01.198Z,51.44
2023-02-06T12:42:07.500Z,51.09
2023-02-06T12:44:52.945Z,49.86
2023-02-06T12:47:35.008Z,48.08
2023-02-06T12:50:03.045Z,47.87
2023-02-06T12:52:50.055Z,48.07
2023-02-06T12:55:26.172Z,47.41
2023-02-06T12:57:58.207Z,48.69
2023-02-06T13:00:41.477Z,50.77
2023-02-06T13:03:29.560Z,52.20
2023-02-06T13:06:03.860Z,52.81
2023-02-06T13:08:42.656Z,53.67
2023-02-06T13:11:29.868Z,54.64
2023-02-06T13:14:06.036Z,55.91
2023-02-06T13:16:40.072Z,56.62
2023-02-06T13:19:20.001Z,56.34
2023-02-06T13:21:56.498Z,56.61
2023-02-06T13:24:25.246Z,57.04
2023-02-06T13:26:55.555Z,57.93
2023-02-06T13:29:33.196Z,57.49
2023-02-06T13:32:31.420Z,57.15
2023-02-06T13:35:12.754Z,57.51
2023-02-06T13:37:43.105Z,58.85
2023-02-06T13:40:23.584Z,58.90
2023-02-06T13:42:59.143Z,59.58
2023-02-06T13:45:57.789Z,60.16
2023-02-06T13:48:35.796Z,60.01
2023-02-06T13:51:41.750Z,60.69
2023-02-06T13:54:25.798Z,61.33
2023-02-06T13:57:13.931Z,61.19
2023-02-06T13:59:51.307Z,61.88
2023-02-06T14:02:27.698Z,62.83
2023-02-06T14:04:57.446Z,63.57
2023-02-06T14:07:39.386Z,63.90
2023-02-06T14:10:23.685Z,64.44
2023-02-06T14:13:22.401Z,64.91
2023-02-06T14:15:58.947Z,65.52
2023-02-06T14:18:51.748Z,65.86
2023-02-06T14:21:35.880Z,65.75
2023-02-06T14:24:16.102Z,65.96
2023-02-06T14:27:02.184Z,65.87
2023-02-06T14:29:39.878Z,65.92
2023-02-06T14:32:12.774Z,66.03
2023-02-06T14:34:50.093Z,66.28
2023-02-06T14:37:39.603Z,66.35
2023-02-06T14:40:13.798Z,66.65
2023-02-06T14:42:43.342Z,66.50
2023-02-06T14:45:23.668Z,66.66
2023-02-06T14:47:51.787Z,66.85
2023-02-06T14:50:23.482Z,66.85
2023-02-06T14:53:00.066Z,67.00
2023-02-06T14:55:33.044Z,67.29
2023-02-06T14:58:01.838Z,67.28
2023-02-06T15:00:30.280Z,66.78
2023-02-06T15:03:19.144Z,66.11
2023-02-06T15:06:32.465Z,66.10
2023-02-06T15:09:00.772Z,66.12
2023-02-06T15:11:32.993Z,66.18
2023-02-06T15:14:06.624Z,65.99
2023-02-06T15:16:49.847Z,65.80
2023-02-06T15:19:30.551Z,65.42
2023-02-06T15:22:01.140Z,65.47
2023-02-06T15:24:43.026Z,65.55
2023-02-06T15:27:17.569Z,65.20
2023-02-06T15:29:50.292Z,65.32
2023-02-06T15:32:38.908Z,65.86
2023-02-06T15:35:24.543Z,65.74
2023-02-06T15:37:53.168Z,65.95
2023-02-06T15:40:33.871Z,65.98
2023-02-06T15:43:02.917Z,66.20
2023-02-06T15:45:35.994Z,65.98
2023-02-06T15:48:25.618Z,66.03
2023-02-06T15:51:04.146Z,65.74
2023-02-06T15:53:40.095Z,65.84
2023-02-06T15:56:35.763Z,66.26
2023-02-06T15:59:06.317Z,66.22
2023-02-06T16:01:37.417Z,66.33
2023-02-06T16:04:08.999Z,66.52
2023-02-06T16:06:37.629Z,66.92
2023-02-06T16:09:08.892Z,67.10
2023-02-06T16:11:51.330Z,67.08
2023-02-06T16:14:25.233Z,66.93
2023-02-06T16:16:58.362Z,66.98
2023-02-06T16:19:47.581Z,66.87
2023-02-06T16:22:22.961Z,66.93
2023-02-06T16:24:52.693Z,66.91
2023-02-06T16:27:26.287Z,66.85
2023-02-06T16:29:56.536Z,66.82
2023-02-06T16:32:30.666Z,66.91
2023-02-06T16:35:01.366Z,67.11
2023-02-06T16:37:30.057Z,67.20
2023-02-06T16:39:58.004Z,67.33
2023-02-06T16:42:32.410Z,67.46
2023-02-06T16:45:01.809Z,67.78
2023-02-06T16:47:30.311Z,67.67
2023-02-06T16:49:58.349Z,68.00
2023-02-06T16:52:30.987Z,68.03
2023-02-06T16:54:59.509Z,68.38
2023-02-06T16:57:36.530Z,68.47
2023-02-06T17:00:09.577Z,68.66
2023-02-06T17:02:37.804Z,68.56
2023-02-06T17:05:06.367Z,68.75
2023-02-06T17:07:35.342Z,68.81
2023-02-06T17:10:05.749Z,68.54
2023-02-06T17:12:34.903Z,68.46
2023-02-06T17:15:03.653Z,68.74
2023-02-06T17:17:32.529Z,68.50
2023-02-06T17:20:00.436Z,68.67
2023-02-06T17:22:28.647Z,68.63
2023-02-06T17:24:56.993Z,68.82
2023-02-06T17:27:25.920Z,68.58
2023-02-06T17:29:56.136Z,68.71
2023-02-06T17:32:24.686Z,68.83
2023-02-06T17:34:54.574Z,68.83
2023-02-06T17:37:22.785Z,68.79
2023-02-06T17:39:52.000Z,68.99
2023-02-06T17:42:22.014Z,69.00
2023-02-06T17:44:50.853Z,68.69
2023-02-06T17:47:19.468Z,68.63
2023-02-06T17:49:47.720Z,68.50
2023-02-06T17:55:28.845Z,68.54
2023-02-06T17:57:56.206Z,68.77
2023-02-06T18:00:23.575Z,69.29
2023-02-06T18:02:52.139Z,68.82
2023-02-06T18:05:19.877Z,68.81
2023-02-06T18:07:49.017Z,68.61
2023-02-06T18:10:16.781Z,68.97
2023-02-06T18:12:44.548Z,69.03
2023-02-06T18:15:15.723Z,69.03
2023-02-06T18:17:42.898Z,69.22
2023-02-06T18:20:10.779Z,69.48
2023-02-06T18:22:40.993Z,69.74
2023-02-06T18:25:12.065Z,69.50
2023-02-06T18:27:42.330Z,69.16
2023-02-06T18:30:09.910Z,69.09
2023-02-06T18:32:37.599Z,69.30
2023-02-06T18:35:07.429Z,69.20
2023-02-06T18:37:34.526Z,69.30
2023-02-06T18:40:02.004Z,69.19
2023-02-06T18:42:47.698Z,69.18
2023-02-06T18:45:14.600Z,69.14
2023-02-06T18:47:42.138Z,69.17
2023-02-06T18:50:10.866Z,69.66
2023-02-06T18:52:38.967Z,69.78
2023-02-06T18:55:07.795Z,69.82
2023-02-06T18:57:36.252Z,70.13
2023-02-06T19:00:05.526Z,70.15
2023-02-06T19:02:32.717Z,70.12
2023-02-06T19:04:59.473Z,70.40
2023-02-06T19:07:26.372Z,70.53
2023-02-06T19:09:58.157Z,70.68
2023-02-06T19:12:28.934Z,70.63
2023-02-06T19:14:56.896Z,70.84
2023-02-06T19:17:26.407Z,71.07
2023-02-06T19:19:53.499Z,71.00
2023-02-06T19:22:21.083Z,71.13
2023-02-06T19:24:48.007Z,71.22
2023-02-06T19:27:15.596Z,71.05
2023-02-06T19:29:42.631Z,71.04
2023-02-06T19:32:11.267Z,71.14
2023-02-06T19:34:39.946Z,71.28
2023-02-06T19:37:08.938Z,71.55
2023-02-06T19:39:37.378Z,71.72
2023-02-06T19:42:06.828Z,71.84
2023-02-06T19:44:33.837Z,71.98
2023-02-06T19:47:00.764Z,72.17
2023-02-06T19:49:28.083Z,72.13
2023-02-06T19:51:55.171Z,72.10
2023-02-06T19:54:22.655Z,72.10
2023-02-06T19:56:49.781Z,72.11
2023-02-06T19:59:23.983Z,72.24
2023-02-06T20:01:59.424Z,72.47
2023-02-06T20:04:27.907Z,72.43
2023-02-06T20:06:55.523Z,72.66
2023-02-06T20:09:22.635Z,72.64
2023-02-06T20:11:54.085Z,72.66
2023-02-06T20:14:21.116Z,72.70
2023-02-06T20:16:48.791Z,72.63
2023-02-06T20:19:25.953Z,72.32
2023-02-06T20:21:54.647Z,72.55
2023-02-06T20:24:23.808Z,72.46
2023-02-06T20:26:55.532Z,72.51
2023-02-06T20:29:31.373Z,72.35
2023-02-06T20:31:59.060Z,72.15
2023-02-06T20:34:26.949Z,71.94
2023-02-06T20:36:54.593Z,72.00
2023-02-06T20:39:21.637Z,72.05
2023-02-06T20:41:49.691Z,71.87
2023-02-06T20:44:16.470Z,71.92
2023-02-06T20:46:43.391Z,71.78
2023-02-06T20:49:18.675Z,71.89
2023-02-06T20:51:45.657Z,71.60
2023-02-06T20:54:12.397Z,71.54
2023-02-06T20:56:39.316Z,71.92
2023-02-06T20:59:06.776Z,71.96
2023-02-06T21:01:33.832Z,71.89
2023-02-06T21:04:03.994Z,71.77
2023-02-06T21:06:33.045Z,71.94
2023-02-06T21:09:00.974Z,72.24
2023-02-06T21:11:28.979Z,72.42
2023-02-06T21:13:59.606Z,72.41
2023-02-06T21:16:26.994Z,72.50
2023-02-06T21:18:54.307Z,72.61
2023-02-06T21:21:21.092Z,72.89
2023-02-06T21:23:47.803Z,73.01
2023-02-06T21:26:16.750Z,73.14
2023-02-06T21:28:45.724Z,73.22
2023-02-06T21:31:17.438Z,73.25
2023-02-06T21:33:45.401Z,73.24
2023-02-06T21:36:11.957Z,73.46
2023-02-06T21:38:38.835Z,73.50
2023-02-06T21:41:07.289Z,73.71
2023-02-06T21:43:34.569Z,74.15
2023-02-06T21:46:01.413Z,73.96
2023-02-06T21:48:28.459Z,74.04
2023-02-06T21:50:55.147Z,73.96
2023-02-06T21:53:21.777Z,74.14
2023-02-06T21:55:49.234Z,74.37
2023-02-06T21:58:16.117Z,74.80
2023-02-06T22:00:43.893Z,74.86
2023-02-06T22:03:10.775Z,74.82
2023-02-06T22:05:37.797Z,74.96
2023-02-06T22:08:04.743Z,75.02
2023-02-06T22:10:31.540Z,74.77
2023-02-06T22:12:58.546Z,74.87
2023-02-06T22:15:25.489Z,75.19
2023-02-06T22:17:53.790Z,75.45
2023-02-06T22:20:20.499Z,75.43
2023-02-06T22:22:47.246Z,75.60
2023-02-06T22:25:13.796Z,75.90
2023-02-06T22:27:41.479Z,76.12
2023-02-06T22:30:09.180Z,76.13
2023-02-06T22:32:37.085Z,76.07
2023-02-06T22:35:04.067Z,75.83
2023-02-06T22:37:30.887Z,75.94
2023-02-06T22:39:57.398Z,76.35
2023-02-06T22:42:24.130Z,76.21
2023-02-06T22:44:51.000Z,76.22
2023-02-06T22:47:17.631Z,76.32
2023-02-06T22:49:44.538Z,76.46
2023-02-06T22:52:29.940Z,76.78
2023-02-06T22:54:56.681Z,77.09
2023-02-06T22:57:23.314Z,77.10
2023-02-06T22:59:50.415Z,77.07
2023-02-06T23:02:17.070Z,77.09
2023-02-06T23:04:43.678Z,77.47
2023-02-06T23:07:10.626Z,77.64
2023-02-06T23:09:38.420Z,77.64
2023-02-06T23:12:09.693Z,77.64
2023-02-06T23:14:36.269Z,77.60
2023-02-06T23:17:03.981Z,77.75
2023-02-06T23:19:30.968Z,77.59
2023-02-06T23:21:57.572Z,77.68
2023-02-06T23:24:24.161Z,77.60
2023-02-06T23:26:50.762Z,77.74
2023-02-06T23:29:18.045Z,78.09
2023-02-06T23:31:45.483Z,78.37
2023-02-06T23:34:12.792Z,78.49
2023-02-06T23:36:39.362Z,78.61
2023-02-06T23:39:06.139Z,78.73
2023-02-06T23:41:32.905Z,78.59
2023-02-06T23:44:01.214Z,78.78
2023-02-06T23:46:29.069Z,79.29
2023-02-06T23:48:55.813Z,79.58
2023-02-06T23:51:22.871Z,79.60
2023-02-06T23:53:49.770Z,79.83
2023-02-06T23:56:21.617Z,80.02
2023-02-06T23:58:48.469Z,80.28
